createdAt,value
2023-05-04T00:00:03.568Z,0
2023-05-04T00:05:02.949Z,0
2023-05-04T00:10:03.326Z,0
2023-05-04T00:15:02.675Z,0
2023-05-04T00:20:03.028Z,0
2023-05-04T00:25:03.380Z,0
2023-05-04T00:30:03.601Z,0
2023-05-04T00:35:02.605Z,0
2023-05-04T00:40:04.013Z,0
2023-05-04T00:45:03.226Z,0
2023-05-04T00:50:03.726Z,0
2023-05-04T00:55:03.748Z,0
2023-05-04T01:00:03.169Z,0
2023-05-04T01:05:02.456Z,0
2023-05-04T01:10:03.962Z,0
2023-05-04T01:15:03.547Z,0
2023-05-04T01:20:03.729Z,0
2023-05-04T01:25:03.050Z,0
2023-05-04T01:30:03.435Z,0
2023-05-04T01:35:02.563Z,0
2023-05-04T01:40:03.059Z,0
2023-05-04T01:45:03.160Z,0
2023-05-04T01:50:03.352Z,0
2023-05-04T01:55:03.009Z,0
2023-05-04T02:00:04.070Z,0
2023-05-04T02:05:03.328Z,0
2023-05-04T02:10:03.430Z,0
2023-05-04T02:15:02.932Z,0
2023-05-04T02:20:03.272Z,0
2023-05-04T02:25:02.486Z,0
2023-05-04T02:30:03.106Z,0
2023-05-04T02:35:03.509Z,0
2023-05-04T02:40:03.791Z,0
2023-05-04T02:45:03.026Z,0
2023-05-04T02:50:03.721Z,0
2023-05-04T02:55:03.571Z,0
2023-05-04T03:00:04.256Z,0
2023-05-04T03:05:02.948Z,0
2023-05-04T03:10:02.830Z,0.45
2023-05-04T03:15:02.487Z,8.33
2023-05-04T03:20:03.860Z,20
2023-05-04T03:25:03.234Z,41.67
2023-05-04T03:30:03.644Z,73.33
2023-05-04T03:35:04.372Z,120
2023-05-04T03:40:03.153Z,181.67
2023-05-04T03:45:04.590Z,275
2023-05-04T03:50:03.029Z,358.33
2023-05-04T03:55:03.639Z,471.67
2023-05-04T04:00:03.526Z,565
2023-05-04T04:05:02.776Z,683.33
2023-05-04T04:10:03.080Z,781.67
2023-05-04T04:15:03.504Z,896.67
2023-05-04T04:20:03.520Z,985
2023-05-04T04:25:02.971Z,1105
2023-05-04T04:30:02.708Z,1760
2023-05-04T04:35:02.698Z,1965
2023-05-04T04:40:03.233Z,2180
2023-05-04T04:45:02.882Z,2383.33
2023-05-04T04:50:02.719Z,2730
2023-05-04T04:55:03.872Z,3031.67
2023-05-04T05:00:03.356Z,3248.33
2023-05-04T05:05:02.948Z,3588.33
2023-05-04T05:10:02.631Z,4000
2023-05-04T05:15:03.285Z,4313.33
2023-05-04T05:20:03.346Z,5165
2023-05-04T05:25:02.736Z,5275
2023-05-04T05:30:03.013Z,5263.33
2023-05-04T05:35:03.378Z,5203.33
2023-05-04T05:40:04.049Z,4605
2023-05-04T05:45:03.673Z,7203.33
2023-05-04T05:50:03.192Z,7300
2023-05-04T05:55:04.328Z,8435
2023-05-04T06:00:03.641Z,8686.67
2023-05-04T06:05:03.419Z,9490
2023-05-04T06:10:02.735Z,9178.33
2023-05-04T06:15:03.126Z,8601.67
2023-05-04T06:20:03.537Z,10630
2023-05-04T06:25:08.282Z,27306.25
2023-05-04T06:30:02.545Z,27306.25
2023-05-04T06:35:03.232Z,27306.25
2023-05-04T06:40:02.965Z,27306.25
2023-05-04T06:45:02.738Z,29220
2023-05-04T06:50:03.126Z,27306.25
2023-05-04T06:55:03.371Z,28090
2023-05-04T07:00:03.778Z,27306.25
2023-05-04T07:05:03.143Z,30470
2023-05-04T07:10:03.677Z,29213.33
2023-05-04T07:15:02.747Z,27306.25
2023-05-04T07:20:03.251Z,27950
2023-05-04T07:25:03.407Z,36473.33
2023-05-04T07:30:03.551Z,35516.67
2023-05-04T07:35:03.359Z,42243.33
2023-05-04T07:40:03.304Z,74178.59
2023-05-04T07:45:02.784Z,77278.2
2023-05-04T07:55:04.281Z,76588.2
2023-05-04T08:00:03.677Z,46213.33
2023-05-04T08:05:02.747Z,42396.67
2023-05-04T08:15:02.761Z,41376.67
2023-05-04T08:20:02.783Z,42080
2023-05-04T08:25:03.061Z,38416.67
2023-05-04T08:30:02.566Z,54612.5
2023-05-04T08:35:03.588Z,73488.59
2023-05-04T08:40:03.030Z,78886.41
2023-05-04T08:45:03.211Z,77281.8
2023-05-04T08:50:02.530Z,74624.22
2023-05-04T08:55:04.552Z,82420.86
2023-05-04T09:00:02.955Z,77919.69
2023-05-04T09:05:03.215Z,77053.59
2023-05-04T09:10:02.681Z,42813.33
2023-05-04T09:15:03.613Z,44793.33
2023-05-04T09:20:03.698Z,87162.81
2023-05-04T09:25:03.598Z,82550.23
2023-05-04T09:30:03.204Z,54612.5
2023-05-04T09:35:03.722Z,82916.8
2023-05-04T09:40:02.881Z,86481.8
2023-05-04T09:45:03.816Z,77357.27
2023-05-04T09:50:03.421Z,73948.59
2023-05-04T09:55:04.285Z,78721.09
2023-05-04T10:00:02.511Z,77914.3
2023-05-04T10:05:03.795Z,77220.7
2023-05-04T10:10:03.213Z,75741.88
2023-05-04T10:15:03.194Z,79784.84
2023-05-04T10:20:02.846Z,76812.81
2023-05-04T10:25:03.100Z,77274.61
2023-05-04T10:30:02.526Z,79648.28
2023-05-04T10:35:04.005Z,83100.08
2023-05-04T10:40:03.049Z,86819.61
2023-05-04T10:45:03.179Z,96454.45
2023-05-04T10:50:02.731Z,95520.08
2023-05-04T10:55:04.595Z,85448.59
2023-05-04T11:00:03.412Z,77504.61
2023-05-04T11:05:03.508Z,54612.5
2023-05-04T11:10:02.770Z,54612.5
2023-05-04T11:15:02.702Z,83818.83
2023-05-04T11:20:02.691Z,103934.84
2023-05-04T11:25:02.576Z,100828.05
2023-05-04T11:30:03.175Z,96323.28
2023-05-04T11:35:03.594Z,91178.83
2023-05-04T11:40:02.890Z,92332.42
2023-05-04T11:45:02.683Z,87362.27
2023-05-04T11:50:03.187Z,89577.81
2023-05-04T11:55:03.194Z,89099.84
2023-05-04T12:00:02.573Z,96368.2
2023-05-04T12:05:03.558Z,88957.89
2023-05-04T12:10:03.142Z,95787.81
2023-05-04T12:15:02.843Z,89001.02
2023-05-04T12:20:02.760Z,94648.59
2023-05-04T12:25:02.515Z,96941.41
2023-05-04T12:30:02.724Z,104078.59
2023-05-04T12:35:02.764Z,98404.06
2023-05-04T12:40:09.213Z,98855.08
2023-05-04T12:45:02.601Z,83797.27
2023-05-04T12:50:03.376Z,86665.08
2023-05-04T12:55:03.731Z,85980.47
2023-05-04T13:00:03.036Z,87935.47
2023-05-04T13:05:02.863Z,81623.05
2023-05-04T13:10:02.821Z,54612.5
2023-05-04T13:15:02.725Z,38553.33
2023-05-04T13:20:02.600Z,37870
2023-05-04T13:25:03.376Z,37466.67
2023-05-04T13:30:03.151Z,37900
2023-05-04T13:35:03.004Z,41616.67
2023-05-04T13:40:02.923Z,38303.33
2023-05-04T13:45:02.561Z,42973.33
2023-05-04T13:50:03.318Z,54612.5
2023-05-04T13:55:04.412Z,54612.5
2023-05-04T14:00:08.745Z,54612.5
2023-05-04T14:05:02.848Z,40963.33
2023-05-04T14:10:02.818Z,34806.67
2023-05-04T14:15:02.648Z,34276.67
2023-05-04T14:20:03.309Z,31296.67
2023-05-04T14:25:03.065Z,34290
2023-05-04T14:30:03.619Z,35296.67
2023-05-04T14:35:02.685Z,33230
2023-05-04T14:40:02.452Z,27836.67
2023-05-04T14:45:02.435Z,27306.25
2023-05-04T14:50:02.628Z,27306.25
2023-05-04T14:55:03.889Z,27306.25
2023-05-04T15:00:02.934Z,27306.25
2023-05-04T15:05:02.688Z,27306.25
2023-05-04T15:10:02.468Z,27306.25
2023-05-04T15:15:03.262Z,27306.25
2023-05-04T15:20:03.077Z,29990
2023-05-04T15:25:02.871Z,30013.33
2023-05-04T15:30:02.706Z,32443.33
2023-05-04T15:35:06.597Z,36586.67
2023-05-04T15:40:03.274Z,29726.67
2023-05-04T15:45:03.336Z,27306.25
2023-05-04T15:50:03.510Z,9816.67
2023-05-04T16:00:02.741Z,8620
2023-05-04T16:05:02.500Z,8536.67
2023-05-04T16:10:02.774Z,6906.67
2023-05-04T16:15:02.513Z,5848.33
2023-05-04T16:20:03.402Z,5835
2023-05-04T16:25:02.972Z,5830
2023-05-04T16:30:02.976Z,5478.33
2023-05-04T16:35:02.940Z,5445
2023-05-04T16:40:02.718Z,5210
2023-05-04T16:45:02.728Z,4383.33
2023-05-04T16:50:02.480Z,4613.33
2023-05-04T16:55:03.483Z,4155
2023-05-04T17:00:03.329Z,3780
2023-05-04T17:05:02.944Z,3505
2023-05-04T17:10:02.682Z,3418.33
2023-05-04T17:15:02.894Z,2890
2023-05-04T17:20:02.993Z,2628.33
2023-05-04T17:25:02.770Z,2505
2023-05-04T17:30:02.580Z,2350
2023-05-04T17:35:23.811Z,2248.33
2023-05-04T17:40:02.471Z,2090
2023-05-04T17:45:03.151Z,1970
2023-05-04T17:50:03.012Z,1741.67
2023-05-04T17:55:03.487Z,1475
2023-05-04T18:00:02.688Z,1250
2023-05-04T18:05:02.432Z,973.33
2023-05-04T18:10:03.245Z,726.67
2023-05-04T18:15:03.224Z,531.67
2023-05-04T18:20:03.163Z,395
2023-05-04T18:25:02.884Z,298.33
2023-05-04T18:30:02.883Z,195
2023-05-04T18:35:02.639Z,135
2023-05-04T18:40:02.469Z,90
2023-05-04T18:45:03.247Z,58.33
2023-05-04T18:50:02.917Z,35
2023-05-04T18:55:03.155Z,18.33
2023-05-04T19:00:03.065Z,8.33
2023-05-04T19:05:02.620Z,0.45
2023-05-04T19:10:02.718Z,0
2023-05-04T19:15:03.276Z,0
2023-05-04T19:20:03.048Z,0
2023-05-04T19:25:02.933Z,0
2023-05-04T19:30:02.973Z,0
2023-05-04T19:35:03.370Z,0
2023-05-04T19:40:03.122Z,0
2023-05-04T19:45:03.054Z,0
2023-05-04T19:50:02.785Z,0
2023-05-04T19:55:03.332Z,0
2023-05-04T20:00:02.797Z,0
2023-05-04T20:05:03.339Z,0
2023-05-04T20:10:03.150Z,0
2023-05-04T20:15:02.948Z,0
2023-05-04T20:20:02.588Z,0
2023-05-04T20:25:03.465Z,0
2023-05-04T20:30:03.127Z,0
2023-05-04T20:35:02.830Z,0
2023-05-04T20:40:02.730Z,0
2023-05-04T20:45:02.637Z,0
2023-05-04T20:50:03.300Z,0
2023-05-04T20:55:02.736Z,0
2023-05-04T21:00:03.313Z,0
2023-05-04T21:05:02.993Z,0
2023-05-04T21:10:02.911Z,0
2023-05-04T21:15:02.501Z,0
2023-05-04T21:20:03.273Z,0
2023-05-04T21:25:02.936Z,0
2023-05-04T21:30:02.918Z,0
2023-05-04T21:35:02.446Z,0
2023-05-04T21:40:03.388Z,0
2023-05-04T21:45:03.313Z,0
2023-05-04T21:50:02.956Z,0
2023-05-04T21:55:03.405Z,0
2023-05-04T22:00:02.767Z,0
2023-05-04T22:05:02.773Z,0
2023-05-04T22:10:02.548Z,0
2023-05-04T22:15:03.270Z,0
2023-05-04T22:20:03.156Z,0
2023-05-04T22:25:02.666Z,0
2023-05-04T22:30:02.483Z,0
2023-05-04T22:35:03.161Z,0
2023-05-04T22:40:03.183Z,0
2023-05-04T22:45:03.352Z,0
2023-05-04T22:50:03.098Z,0
2023-05-04T22:55:03.881Z,0
2023-05-04T23:00:03.066Z,0
2023-05-04T23:05:02.676Z,0
2023-05-04T23:10:02.479Z,0
2023-05-04T23:15:02.471Z,0
2023-05-04T23:20:03.384Z,0
2023-05-04T23:25:02.844Z,0
2023-05-04T23:30:02.890Z,0
2023-05-04T23:35:02.662Z,0
2023-05-04T23:40:02.506Z,0
2023-05-04T23:45:03.266Z,0
2023-05-04T23:50:03.240Z,0
2023-05-04T23:55:03.663Z,0
